sensor_id;sensor_type;location;lat;lon;timestamp;P1;durP1;ratioP1;P2;durP2;ratioP2
20140;SDS011;10231;47.702;9.826;2022-09-27T00:01:36;1.97;;;1.70;;
20140;SDS011;10231;47.702;9.826;2022-09-27T00:04:01;2.87;;;2.20;;
20140;SDS011;10231;47.702;9.826;2022-09-27T00:06:28;2.10;;;1.90;;
20140;SDS011;10231;47.702;9.826;2022-09-27T00:08:55;2.47;;;1.87;;
20140;SDS011;10231;47.702;9.826;2022-09-27T00:11:25;2.13;;;1.80;;
20140;SDS011;10231;47.702;9.826;2022-09-27T00:13:54;2.03;;;1.80;;
20140;SDS011;10231;47.702;9.826;2022-09-27T00:16:28;1.73;;;1.63;;
20140;SDS011;10231;47.702;9.826;2022-09-27T00:18:59;1.53;;;1.30;;
20140;SDS011;10231;47.702;9.826;2022-09-27T00:21:27;2.20;;;1.83;;
20140;SDS011;10231;47.702;9.826;2022-09-27T00:23:54;2.17;;;1.97;;
20140;SDS011;10231;47.702;9.826;2022-09-27T00:26:20;1.97;;;1.87;;
20140;SDS011;10231;47.702;9.826;2022-09-27T00:28:46;1.80;;;1.70;;
20140;SDS011;10231;47.702;9.826;2022-09-27T00:31:19;1.73;;;1.63;;
20140;SDS011;10231;47.702;9.826;2022-09-27T00:33:56;1.60;;;1.50;;
20140;SDS011;10231;47.702;9.826;2022-09-27T00:36:23;1.80;;;1.70;;
20140;SDS011;10231;47.702;9.826;2022-09-27T00:38:50;1.90;;;1.80;;
20140;SDS011;10231;47.702;9.826;2022-09-27T00:41:17;2.23;;;2.00;;
20140;SDS011;10231;47.702;9.826;2022-09-27T00:43:47;2.77;;;2.27;;
20140;SDS011;10231;47.702;9.826;2022-09-27T00:46:17;1.77;;;1.60;;
20140;SDS011;10231;47.702;9.826;2022-09-27T00:49:24;1.60;;;1.50;;
20140;SDS011;10231;47.702;9.826;2022-09-27T00:52:01;2.40;;;1.83;;
20140;SDS011;10231;47.702;9.826;2022-09-27T00:54:32;1.90;;;1.80;;
20140;SDS011;10231;47.702;9.826;2022-09-27T00:57:00;1.83;;;1.50;;
20140;SDS011;10231;47.702;9.826;2022-09-27T01:01:56;2.30;;;1.93;;
20140;SDS011;10231;47.702;9.826;2022-09-27T01:04:23;1.73;;;1.60;;
20140;SDS011;10231;47.702;9.826;2022-09-27T01:06:51;1.53;;;1.43;;
20140;SDS011;10231;47.702;9.826;2022-09-27T01:09:17;1.90;;;1.70;;
20140;SDS011;10231;47.702;9.826;2022-09-27T01:11:44;1.83;;;1.50;;
20140;SDS011;10231;47.702;9.826;2022-09-27T01:22:34;2.53;;;1.87;;
20140;SDS011;10231;47.702;9.826;2022-09-27T01:25:21;2.43;;;1.77;;
20140;SDS011;10231;47.702;9.826;2022-09-27T01:30:47;2.63;;;1.50;;
20140;SDS011;10231;47.702;9.826;2022-09-27T01:38:50;1.47;;;1.37;;
20140;SDS011;10231;47.702;9.826;2022-09-27T01:41:55;1.67;;;1.57;;
20140;SDS011;10231;47.702;9.826;2022-09-27T01:44:39;1.50;;;1.40;;
20140;SDS011;10231;47.702;9.826;2022-09-27T01:47:17;1.83;;;1.63;;
20140;SDS011;10231;47.702;9.826;2022-09-27T01:50:07;2.80;;;1.60;;
20140;SDS011;10231;47.702;9.826;2022-09-27T01:52:37;1.63;;;1.53;;
20140;SDS011;10231;47.702;9.826;2022-09-27T01:55:08;1.57;;;1.47;;
20140;SDS011;10231;47.702;9.826;2022-09-27T01:57:38;1.60;;;1.50;;
20140;SDS011;10231;47.702;9.826;2022-09-27T02:00:07;1.80;;;1.70;;
20140;SDS011;10231;47.702;9.826;2022-09-27T02:02:36;1.47;;;1.33;;
20140;SDS011;10231;47.702;9.826;2022-09-27T02:05:06;1.50;;;1.50;;
20140;SDS011;10231;47.702;9.826;2022-09-27T02:07:36;1.67;;;1.57;;
20140;SDS011;10231;47.702;9.826;2022-09-27T02:10:19;1.67;;;1.57;;
20140;SDS011;10231;47.702;9.826;2022-09-27T02:12:55;2.13;;;1.77;;
20140;SDS011;10231;47.702;9.826;2022-09-27T02:15:27;2.17;;;1.70;;
20140;SDS011;10231;47.702;9.826;2022-09-27T02:18:00;2.40;;;2.20;;
20140;SDS011;10231;47.702;9.826;2022-09-27T02:20:33;1.80;;;1.70;;
20140;SDS011;10231;47.702;9.826;2022-09-27T02:25:56;2.47;;;2.00;;
20140;SDS011;10231;47.702;9.826;2022-09-27T02:31:08;2.00;;;1.90;;
20140;SDS011;10231;47.702;9.826;2022-09-27T02:33:38;1.73;;;1.63;;
20140;SDS011;10231;47.702;9.826;2022-09-27T02:36:09;2.20;;;2.00;;
20140;SDS011;10231;47.702;9.826;2022-09-27T02:38:35;1.80;;;1.70;;
20140;SDS011;10231;47.702;9.826;2022-09-27T02:41:01;2.40;;;2.20;;
20140;SDS011;10231;47.702;9.826;2022-09-27T02:43:28;2.20;;;2.00;;
20140;SDS011;10231;47.702;9.826;2022-09-27T02:46:19;1.90;;;1.80;;
20140;SDS011;10231;47.702;9.826;2022-09-27T03:00:16;2.03;;;1.93;;
20140;SDS011;10231;47.702;9.826;2022-09-27T03:02:50;2.77;;;2.40;;
20140;SDS011;10231;47.702;9.826;2022-09-27T03:05:24;2.30;;;2.10;;
20140;SDS011;10231;47.702;9.826;2022-09-27T03:07:52;2.60;;;2.40;;
20140;SDS011;10231;47.702;9.826;2022-09-27T03:10:20;3.30;;;2.10;;
20140;SDS011;10231;47.702;9.826;2022-09-27T03:12:49;2.43;;;2.20;;
20140;SDS011;10231;47.702;9.826;2022-09-27T03:15:14;1.80;;;1.70;;
20140;SDS011;10231;47.702;9.826;2022-09-27T03:17:40;1.67;;;1.57;;
20140;SDS011;10231;47.702;9.826;2022-09-27T03:20:06;1.60;;;1.50;;
20140;SDS011;10231;47.702;9.826;2022-09-27T03:22:32;1.40;;;1.30;;
20140;SDS011;10231;47.702;9.826;2022-09-27T03:24:59;1.10;;;0.97;;
20140;SDS011;10231;47.702;9.826;2022-09-27T03:27:24;0.97;;;0.97;;
20140;SDS011;10231;47.702;9.826;2022-09-27T03:29:50;0.70;;;0.70;;
20140;SDS011;10231;47.702;9.826;2022-09-27T03:32:15;0.63;;;0.63;;
20140;SDS011;10231;47.702;9.826;2022-09-27T03:34:42;1.03;;;0.70;;
20140;SDS011;10231;47.702;9.826;2022-09-27T03:37:07;0.70;;;0.70;;
20140;SDS011;10231;47.702;9.826;2022-09-27T03:39:33;0.70;;;0.70;;
20140;SDS011;10231;47.702;9.826;2022-09-27T03:41:58;0.80;;;0.67;;
20140;SDS011;10231;47.702;9.826;2022-09-27T03:44:24;0.97;;;0.73;;
20140;SDS011;10231;47.702;9.826;2022-09-27T03:46:49;1.13;;;0.50;;
20140;SDS011;10231;47.702;9.826;2022-09-27T03:49:15;0.73;;;0.73;;
20140;SDS011;10231;47.702;9.826;2022-09-27T03:51:41;0.83;;;0.80;;
20140;SDS011;10231;47.702;9.826;2022-09-27T03:54:07;1.10;;;1.00;;
20140;SDS011;10231;47.702;9.826;2022-09-27T03:56:33;1.13;;;0.90;;
20140;SDS011;10231;47.702;9.826;2022-09-27T03:58:58;0.70;;;0.70;;
20140;SDS011;10231;47.702;9.826;2022-09-27T04:01:25;0.67;;;0.67;;
20140;SDS011;10231;47.702;9.826;2022-09-27T04:03:51;1.07;;;0.90;;
20140;SDS011;10231;47.702;9.826;2022-09-27T04:06:17;1.13;;;0.93;;
20140;SDS011;10231;47.702;9.826;2022-09-27T04:08:43;0.97;;;0.70;;
20140;SDS011;10231;47.702;9.826;2022-09-27T04:11:10;1.63;;;0.67;;
20140;SDS011;10231;47.702;9.826;2022-09-27T04:13:35;0.70;;;0.70;;
20140;SDS011;10231;47.702;9.826;2022-09-27T04:16:01;0.50;;;0.50;;
20140;SDS011;10231;47.702;9.826;2022-09-27T04:18:27;0.90;;;0.90;;
20140;SDS011;10231;47.702;9.826;2022-09-27T04:20:53;1.80;;;0.60;;
20140;SDS011;10231;47.702;9.826;2022-09-27T04:23:18;1.50;;;0.73;;
20140;SDS011;10231;47.702;9.826;2022-09-27T04:25:44;0.70;;;0.60;;
20140;SDS011;10231;47.702;9.826;2022-09-27T04:28:10;1.03;;;0.50;;
20140;SDS011;10231;47.702;9.826;2022-09-27T04:30:36;0.60;;;0.60;;
20140;SDS011;10231;47.702;9.826;2022-09-27T04:33:02;0.83;;;0.57;;
20140;SDS011;10231;47.702;9.826;2022-09-27T04:35:28;0.97;;;0.63;;
20140;SDS011;10231;47.702;9.826;2022-09-27T04:38:12;0.70;;;0.40;;
20140;SDS011;10231;47.702;9.826;2022-09-27T04:40:38;0.73;;;0.40;;
20140;SDS011;10231;47.702;9.826;2022-09-27T04:43:04;0.40;;;0.40;;
20140;SDS011;10231;47.702;9.826;2022-09-27T04:45:29;2.33;;;1.03;;
20140;SDS011;10231;47.702;9.826;2022-09-27T04:47:55;0.40;;;0.33;;
20140;SDS011;10231;47.702;9.826;2022-09-27T04:50:21;1.60;;;0.60;;
20140;SDS011;10231;47.702;9.826;2022-09-27T04:52:50;0.40;;;0.40;;
20140;SDS011;10231;47.702;9.826;2022-09-27T04:55:16;0.40;;;0.40;;
20140;SDS011;10231;47.702;9.826;2022-09-27T04:57:42;0.73;;;0.33;;
20140;SDS011;10231;47.702;9.826;2022-09-27T05:00:08;0.93;;;0.30;;
20140;SDS011;10231;47.702;9.826;2022-09-27T05:02:35;1.37;;;0.30;;
20140;SDS011;10231;47.702;9.826;2022-09-27T05:05:00;2.60;;;0.70;;
20140;SDS011;10231;47.702;9.826;2022-09-27T05:07:26;0.30;;;0.30;;
20140;SDS011;10231;47.702;9.826;2022-09-27T05:09:52;0.63;;;0.30;;
20140;SDS011;10231;47.702;9.826;2022-09-27T05:12:19;0.30;;;0.30;;
20140;SDS011;10231;47.702;9.826;2022-09-27T05:14:44;0.60;;;0.50;;
20140;SDS011;10231;47.702;9.826;2022-09-27T05:17:10;0.53;;;0.20;;
20140;SDS011;10231;47.702;9.826;2022-09-27T05:19:36;0.33;;;0.30;;
20140;SDS011;10231;47.702;9.826;2022-09-27T05:22:03;1.73;;;0.77;;
20140;SDS011;10231;47.702;9.826;2022-09-27T05:24:29;0.70;;;0.60;;
20140;SDS011;10231;47.702;9.826;2022-09-27T05:26:57;2.37;;;0.90;;
20140;SDS011;10231;47.702;9.826;2022-09-27T05:29:23;0.40;;;0.40;;
20140;SDS011;10231;47.702;9.826;2022-09-27T05:31:48;1.07;;;0.40;;
20140;SDS011;10231;47.702;9.826;2022-09-27T05:34:14;1.30;;;0.47;;
20140;SDS011;10231;47.702;9.826;2022-09-27T05:36:40;1.90;;;0.50;;
20140;SDS011;10231;47.702;9.826;2022-09-27T05:39:06;0.43;;;0.43;;
20140;SDS011;10231;47.702;9.826;2022-09-27T05:41:31;2.73;;;0.50;;
20140;SDS011;10231;47.702;9.826;2022-09-27T05:43:57;0.63;;;0.60;;
20140;SDS011;10231;47.702;9.826;2022-09-27T05:46:24;1.13;;;0.30;;
20140;SDS011;10231;47.702;9.826;2022-09-27T05:48:50;0.63;;;0.40;;
20140;SDS011;10231;47.702;9.826;2022-09-27T05:51:15;1.20;;;0.70;;
20140;SDS011;10231;47.702;9.826;2022-09-27T05:53:41;1.37;;;0.50;;
20140;SDS011;10231;47.702;9.826;2022-09-27T05:56:06;1.60;;;0.70;;
20140;SDS011;10231;47.702;9.826;2022-09-27T05:58:32;1.73;;;0.50;;
20140;SDS011;10231;47.702;9.826;2022-09-27T06:00:58;2.10;;;0.60;;
20140;SDS011;10231;47.702;9.826;2022-09-27T06:03:24;2.53;;;0.70;;
20140;SDS011;10231;47.702;9.826;2022-09-27T06:05:50;1.20;;;0.53;;
20140;SDS011;10231;47.702;9.826;2022-09-27T06:08:15;3.43;;;1.13;;
20140;SDS011;10231;47.702;9.826;2022-09-27T06:10:41;0.60;;;0.60;;
20140;SDS011;10231;47.702;9.826;2022-09-27T06:13:10;2.33;;;0.70;;
20140;SDS011;10231;47.702;9.826;2022-09-27T06:15:38;1.70;;;0.73;;
20140;SDS011;10231;47.702;9.826;2022-09-27T06:18:11;1.27;;;0.57;;
20140;SDS011;10231;47.702;9.826;2022-09-27T06:20:40;2.03;;;0.80;;
20140;SDS011;10231;47.702;9.826;2022-09-27T06:23:07;4.17;;;0.80;;
20140;SDS011;10231;47.702;9.826;2022-09-27T06:25:42;2.20;;;0.53;;
20140;SDS011;10231;47.702;9.826;2022-09-27T06:28:08;2.10;;;0.80;;
20140;SDS011;10231;47.702;9.826;2022-09-27T06:30:37;2.10;;;0.90;;
20140;SDS011;10231;47.702;9.826;2022-09-27T06:33:04;1.60;;;0.60;;
20140;SDS011;10231;47.702;9.826;2022-09-27T06:35:30;0.97;;;0.40;;
20140;SDS011;10231;47.702;9.826;2022-09-27T06:37:55;1.33;;;0.67;;
20140;SDS011;10231;47.702;9.826;2022-09-27T06:40:21;0.93;;;0.60;;
20140;SDS011;10231;47.702;9.826;2022-09-27T06:42:51;1.07;;;0.60;;
20140;SDS011;10231;47.702;9.826;2022-09-27T06:45:17;2.43;;;0.63;;
20140;SDS011;10231;47.702;9.826;2022-09-27T06:47:42;0.90;;;0.90;;
20140;SDS011;10231;47.702;9.826;2022-09-27T06:50:08;1.70;;;0.90;;
20140;SDS011;10231;47.702;9.826;2022-09-27T06:52:34;2.93;;;0.83;;
20140;SDS011;10231;47.702;9.826;2022-09-27T06:55:01;2.00;;;0.80;;
20140;SDS011;10231;47.702;9.826;2022-09-27T06:57:28;1.43;;;0.63;;
20140;SDS011;10231;47.702;9.826;2022-09-27T07:00:12;2.23;;;0.87;;
20140;SDS011;10231;47.702;9.826;2022-09-27T07:02:54;1.70;;;0.93;;
20140;SDS011;10231;47.702;9.826;2022-09-27T07:05:27;2.77;;;1.20;;
20140;SDS011;10231;47.702;9.826;2022-09-27T07:07:54;1.73;;;1.13;;
20140;SDS011;10231;47.702;9.826;2022-09-27T07:10:24;2.27;;;1.30;;
20140;SDS011;10231;47.702;9.826;2022-09-27T07:12:51;1.13;;;0.80;;
20140;SDS011;10231;47.702;9.826;2022-09-27T07:15:18;3.00;;;0.80;;
20140;SDS011;10231;47.702;9.826;2022-09-27T07:17:45;1.03;;;0.90;;
20140;SDS011;10231;47.702;9.826;2022-09-27T07:20:11;0.80;;;0.70;;
20140;SDS011;10231;47.702;9.826;2022-09-27T07:22:40;0.97;;;0.40;;
20140;SDS011;10231;47.702;9.826;2022-09-27T07:25:10;0.97;;;0.40;;
20140;SDS011;10231;47.702;9.826;2022-09-27T07:27:35;0.70;;;0.40;;
20140;SDS011;10231;47.702;9.826;2022-09-27T07:30:05;0.50;;;0.30;;
20140;SDS011;10231;47.702;9.826;2022-09-27T07:32:31;1.73;;;0.40;;
20140;SDS011;10231;47.702;9.826;2022-09-27T07:34:57;2.77;;;0.50;;
20140;SDS011;10231;47.702;9.826;2022-09-27T07:37:22;4.13;;;0.97;;
20140;SDS011;10231;47.702;9.826;2022-09-27T07:39:48;1.37;;;0.60;;
20140;SDS011;10231;47.702;9.826;2022-09-27T07:42:13;0.80;;;0.40;;
20140;SDS011;10231;47.702;9.826;2022-09-27T07:44:39;1.63;;;0.57;;
20140;SDS011;10231;47.702;9.826;2022-09-27T07:47:05;2.47;;;0.80;;
20140;SDS011;10231;47.702;9.826;2022-09-27T07:49:32;1.43;;;0.50;;
20140;SDS011;10231;47.702;9.826;2022-09-27T07:51:57;1.33;;;0.70;;
20140;SDS011;10231;47.702;9.826;2022-09-27T07:54:23;1.03;;;0.50;;
20140;SDS011;10231;47.702;9.826;2022-09-27T07:56:48;2.00;;;0.60;;
20140;SDS011;10231;47.702;9.826;2022-09-27T07:59:14;2.13;;;0.50;;
20140;SDS011;10231;47.702;9.826;2022-09-27T08:01:39;2.30;;;0.50;;
20140;SDS011;10231;47.702;9.826;2022-09-27T08:04:05;1.03;;;0.77;;
20140;SDS011;10231;47.702;9.826;2022-09-27T08:06:30;0.80;;;0.50;;
20140;SDS011;10231;47.702;9.826;2022-09-27T08:08:56;1.17;;;0.60;;
20140;SDS011;10231;47.702;9.826;2022-09-27T08:11:23;1.13;;;0.80;;
20140;SDS011;10231;47.702;9.826;2022-09-27T08:13:49;1.80;;;0.40;;
20140;SDS011;10231;47.702;9.826;2022-09-27T08:16:16;1.50;;;0.90;;
20140;SDS011;10231;47.702;9.826;2022-09-27T08:18:42;3.30;;;1.00;;
20140;SDS011;10231;47.702;9.826;2022-09-27T08:21:08;0.40;;;0.40;;
20140;SDS011;10231;47.702;9.826;2022-09-27T08:23:34;0.90;;;0.63;;
20140;SDS011;10231;47.702;9.826;2022-09-27T08:26:00;0.73;;;0.40;;
20140;SDS011;10231;47.702;9.826;2022-09-27T08:28:27;0.30;;;0.20;;
20140;SDS011;10231;47.702;9.826;2022-09-27T08:30:53;0.67;;;0.40;;
20140;SDS011;10231;47.702;9.826;2022-09-27T08:33:18;0.40;;;0.20;;
20140;SDS011;10231;47.702;9.826;2022-09-27T08:35:44;0.40;;;0.40;;
20140;SDS011;10231;47.702;9.826;2022-09-27T08:38:10;0.30;;;0.30;;
20140;SDS011;10231;47.702;9.826;2022-09-27T08:41:37;1.07;;;0.40;;
20140;SDS011;10231;47.702;9.826;2022-09-27T08:43:51;1.83;;;0.77;;
20140;SDS011;10231;47.702;9.826;2022-09-27T08:49:52;0.30;;;0.20;;
20140;SDS011;10231;47.702;9.826;2022-09-27T08:52:41;0.20;;;0.20;;
20140;SDS011;10231;47.702;9.826;2022-09-27T08:55:23;0.37;;;0.37;;
20140;SDS011;10231;47.702;9.826;2022-09-27T09:01:12;1.30;;;0.30;;
20140;SDS011;10231;47.702;9.826;2022-09-27T09:03:44;0.47;;;0.30;;
20140;SDS011;10231;47.702;9.826;2022-09-27T09:06:17;0.70;;;0.40;;
20140;SDS011;10231;47.702;9.826;2022-09-27T09:19:46;0.93;;;0.63;;
20140;SDS011;10231;47.702;9.826;2022-09-27T09:31:14;1.47;;;0.97;;
20140;SDS011;10231;47.702;9.826;2022-09-27T09:33:45;1.07;;;0.63;;
20140;SDS011;10231;47.702;9.826;2022-09-27T09:38:56;1.97;;;0.60;;
20140;SDS011;10231;47.702;9.826;2022-09-27T09:46:47;1.00;;;0.97;;
20140;SDS011;10231;47.702;9.826;2022-09-27T09:49:20;0.90;;;0.80;;
20140;SDS011;10231;47.702;9.826;2022-09-27T09:51:51;1.43;;;0.70;;
20140;SDS011;10231;47.702;9.826;2022-09-27T09:54:39;1.87;;;0.60;;
20140;SDS011;10231;47.702;9.826;2022-09-27T09:57:13;1.50;;;1.00;;
20140;SDS011;10231;47.702;9.826;2022-09-27T09:59:44;2.03;;;1.00;;
20140;SDS011;10231;47.702;9.826;2022-09-27T10:02:15;2.67;;;1.00;;
20140;SDS011;10231;47.702;9.826;2022-09-27T10:04:46;3.60;;;1.20;;
20140;SDS011;10231;47.702;9.826;2022-09-27T10:07:11;1.30;;;0.63;;
20140;SDS011;10231;47.702;9.826;2022-09-27T10:09:39;2.77;;;0.90;;
20140;SDS011;10231;47.702;9.826;2022-09-27T10:12:04;3.07;;;1.33;;
20140;SDS011;10231;47.702;9.826;2022-09-27T10:14:30;1.73;;;1.00;;
20140;SDS011;10231;47.702;9.826;2022-09-27T10:16:58;1.27;;;1.10;;
20140;SDS011;10231;47.702;9.826;2022-09-27T10:19:28;2.20;;;1.13;;
20140;SDS011;10231;47.702;9.826;2022-09-27T10:22:18;2.40;;;1.70;;
20140;SDS011;10231;47.702;9.826;2022-09-27T10:24:57;1.53;;;1.40;;
20140;SDS011;10231;47.702;9.826;2022-09-27T10:27:25;2.37;;;1.67;;
20140;SDS011;10231;47.702;9.826;2022-09-27T10:29:58;1.93;;;1.50;;
20140;SDS011;10231;47.702;9.826;2022-09-27T10:32:25;2.57;;;1.40;;
20140;SDS011;10231;47.702;9.826;2022-09-27T10:35:17;3.77;;;1.77;;
20140;SDS011;10231;47.702;9.826;2022-09-27T10:40:53;3.03;;;1.43;;
20140;SDS011;10231;47.702;9.826;2022-09-27T10:43:24;3.73;;;1.20;;
20140;SDS011;10231;47.702;9.826;2022-09-27T10:46:42;3.13;;;1.40;;
20140;SDS011;10231;47.702;9.826;2022-09-27T10:48:48;3.13;;;1.33;;
20140;SDS011;10231;47.702;9.826;2022-09-27T10:51:41;2.00;;;1.27;;
20140;SDS011;10231;47.702;9.826;2022-09-27T10:54:21;2.67;;;1.50;;
20140;SDS011;10231;47.702;9.826;2022-09-27T10:56:59;1.90;;;0.80;;
20140;SDS011;10231;47.702;9.826;2022-09-27T10:59:51;1.87;;;0.93;;
20140;SDS011;10231;47.702;9.826;2022-09-27T11:02:20;3.43;;;0.93;;
20140;SDS011;10231;47.702;9.826;2022-09-27T11:07:28;3.17;;;1.07;;
20140;SDS011;10231;47.702;9.826;2022-09-27T11:09:55;1.40;;;1.00;;
20140;SDS011;10231;47.702;9.826;2022-09-27T11:12:27;2.13;;;1.00;;
20140;SDS011;10231;47.702;9.826;2022-09-27T11:14:59;2.67;;;1.30;;
20140;SDS011;10231;47.702;9.826;2022-09-27T11:17:38;2.10;;;1.10;;
20140;SDS011;10231;47.702;9.826;2022-09-27T11:25:33;3.07;;;1.23;;
20140;SDS011;10231;47.702;9.826;2022-09-27T11:30:33;4.17;;;1.23;;
20140;SDS011;10231;47.702;9.826;2022-09-27T11:36:49;2.10;;;0.83;;
20140;SDS011;10231;47.702;9.826;2022-09-27T11:42:23;3.07;;;1.10;;
20140;SDS011;10231;47.702;9.826;2022-09-27T11:48:22;1.40;;;0.87;;
20140;SDS011;10231;47.702;9.826;2022-09-27T11:50:49;1.37;;;0.77;;
20140;SDS011;10231;47.702;9.826;2022-09-27T11:56:40;3.70;;;1.30;;
20140;SDS011;10231;47.702;9.826;2022-09-27T12:02:11;1.67;;;0.70;;
20140;SDS011;10231;47.702;9.826;2022-09-27T12:05:08;1.13;;;0.73;;
20140;SDS011;10231;47.702;9.826;2022-09-27T12:10:49;1.30;;;0.90;;
20140;SDS011;10231;47.702;9.826;2022-09-27T12:13:31;1.43;;;0.40;;
20140;SDS011;10231;47.702;9.826;2022-09-27T12:16:00;1.17;;;0.40;;
20140;SDS011;10231;47.702;9.826;2022-09-27T12:18:29;1.37;;;0.50;;
20140;SDS011;10231;47.702;9.826;2022-09-27T12:21:01;1.17;;;0.40;;
20140;SDS011;10231;47.702;9.826;2022-09-27T12:28:55;0.80;;;0.80;;
20140;SDS011;10231;47.702;9.826;2022-09-27T12:31:34;0.50;;;0.50;;
20140;SDS011;10231;47.702;9.826;2022-09-27T12:34:10;0.30;;;0.30;;
20140;SDS011;10231;47.702;9.826;2022-09-27T12:36:44;0.67;;;0.50;;
20140;SDS011;10231;47.702;9.826;2022-09-27T12:39:19;0.30;;;0.30;;
20140;SDS011;10231;47.702;9.826;2022-09-27T12:41:59;1.20;;;0.80;;
20140;SDS011;10231;47.702;9.826;2022-09-27T12:44:32;1.67;;;0.60;;
20140;SDS011;10231;47.702;9.826;2022-09-27T12:47:08;0.73;;;0.70;;
20140;SDS011;10231;47.702;9.826;2022-09-27T12:52:29;6.17;;;4.37;;
20140;SDS011;10231;47.702;9.826;2022-09-27T12:57:53;3.67;;;2.73;;
20140;SDS011;10231;47.702;9.826;2022-09-27T13:01:06;1.33;;;1.10;;
20140;SDS011;10231;47.702;9.826;2022-09-27T13:06:39;1.40;;;0.83;;
20140;SDS011;10231;47.702;9.826;2022-09-27T13:12:02;0.80;;;0.80;;
20140;SDS011;10231;47.702;9.826;2022-09-27T13:14:38;0.87;;;0.70;;
20140;SDS011;10231;47.702;9.826;2022-09-27T13:19:55;1.53;;;1.00;;
20140;SDS011;10231;47.702;9.826;2022-09-27T13:24:53;1.57;;;1.43;;
20140;SDS011;10231;47.702;9.826;2022-09-27T13:29:47;0.80;;;0.80;;
20140;SDS011;10231;47.702;9.826;2022-09-27T13:32:22;1.07;;;0.87;;
20140;SDS011;10231;47.702;9.826;2022-09-27T13:34:53;1.70;;;0.80;;
20140;SDS011;10231;47.702;9.826;2022-09-27T13:40:10;3.33;;;1.63;;
20140;SDS011;10231;47.702;9.826;2022-09-27T13:42:43;2.00;;;1.90;;
20140;SDS011;10231;47.702;9.826;2022-09-27T13:48:26;1.57;;;1.47;;
20140;SDS011;10231;47.702;9.826;2022-09-27T13:50:58;3.77;;;1.73;;
20140;SDS011;10231;47.702;9.826;2022-09-27T13:53:41;1.87;;;1.17;;
20140;SDS011;10231;47.702;9.826;2022-09-27T13:56:47;1.53;;;0.80;;
20140;SDS011;10231;47.702;9.826;2022-09-27T13:59:13;2.33;;;1.27;;
20140;SDS011;10231;47.702;9.826;2022-09-27T14:02:01;1.23;;;1.13;;
20140;SDS011;10231;47.702;9.826;2022-09-27T14:07:22;1.27;;;0.83;;
20140;SDS011;10231;47.702;9.826;2022-09-27T14:09:52;1.20;;;0.77;;
20140;SDS011;10231;47.702;9.826;2022-09-27T14:12:21;1.10;;;0.97;;
20140;SDS011;10231;47.702;9.826;2022-09-27T14:14:53;2.80;;;2.07;;
20140;SDS011;10231;47.702;9.826;2022-09-27T14:17:21;1.70;;;1.00;;
20140;SDS011;10231;47.702;9.826;2022-09-27T14:19:47;1.70;;;1.50;;
20140;SDS011;10231;47.702;9.826;2022-09-27T14:22:15;1.93;;;0.83;;
20140;SDS011;10231;47.702;9.826;2022-09-27T14:24:46;0.87;;;0.60;;
20140;SDS011;10231;47.702;9.826;2022-09-27T14:32:13;1.13;;;0.50;;
20140;SDS011;10231;47.702;9.826;2022-09-27T14:34:41;0.60;;;0.60;;
20140;SDS011;10231;47.702;9.826;2022-09-27T14:37:40;1.37;;;0.87;;
20140;SDS011;10231;47.702;9.826;2022-09-27T14:40:01;1.43;;;0.50;;
20140;SDS011;10231;47.702;9.826;2022-09-27T14:42:30;2.77;;;0.80;;
20140;SDS011;10231;47.702;9.826;2022-09-27T14:45:03;1.17;;;0.80;;
20140;SDS011;10231;47.702;9.826;2022-09-27T14:47:43;2.80;;;0.70;;
20140;SDS011;10231;47.702;9.826;2022-09-27T14:50:23;1.90;;;0.50;;
20140;SDS011;10231;47.702;9.826;2022-09-27T14:52:51;2.50;;;0.93;;
20140;SDS011;10231;47.702;9.826;2022-09-27T14:55:20;1.40;;;0.40;;
20140;SDS011;10231;47.702;9.826;2022-09-27T14:57:58;0.40;;;0.40;;
20140;SDS011;10231;47.702;9.826;2022-09-27T15:00:28;1.07;;;0.40;;
20140;SDS011;10231;47.702;9.826;2022-09-27T15:02:57;0.40;;;0.40;;
20140;SDS011;10231;47.702;9.826;2022-09-27T15:05:28;0.97;;;0.70;;
20140;SDS011;10231;47.702;9.826;2022-09-27T15:07:57;2.63;;;0.83;;
20140;SDS011;10231;47.702;9.826;2022-09-27T15:10:26;0.50;;;0.50;;
20140;SDS011;10231;47.702;9.826;2022-09-27T15:12:55;1.80;;;0.73;;
20140;SDS011;10231;47.702;9.826;2022-09-27T15:15:24;1.20;;;0.60;;
20140;SDS011;10231;47.702;9.826;2022-09-27T15:17:54;0.53;;;0.50;;
20140;SDS011;10231;47.702;9.826;2022-09-27T15:20:21;1.17;;;0.40;;
20140;SDS011;10231;47.702;9.826;2022-09-27T15:22:56;0.60;;;0.60;;
20140;SDS011;10231;47.702;9.826;2022-09-27T15:27:56;1.43;;;0.40;;
20140;SDS011;10231;47.702;9.826;2022-09-27T15:30:26;1.33;;;0.50;;
20140;SDS011;10231;47.702;9.826;2022-09-27T15:32:57;0.50;;;0.50;;
20140;SDS011;10231;47.702;9.826;2022-09-27T15:35:27;0.70;;;0.60;;
20140;SDS011;10231;47.702;9.826;2022-09-27T15:43:22;2.00;;;1.43;;
20140;SDS011;10231;47.702;9.826;2022-09-27T15:45:56;0.93;;;0.60;;
20140;SDS011;10231;47.702;9.826;2022-09-27T15:48:28;0.40;;;0.40;;
20140;SDS011;10231;47.702;9.826;2022-09-27T15:50:56;1.67;;;0.53;;
20140;SDS011;10231;47.702;9.826;2022-09-27T15:56:00;0.70;;;0.60;;
20140;SDS011;10231;47.702;9.826;2022-09-27T15:58:27;1.27;;;0.40;;
20140;SDS011;10231;47.702;9.826;2022-09-27T16:00:57;0.50;;;0.50;;
20140;SDS011;10231;47.702;9.826;2022-09-27T16:03:29;0.80;;;0.40;;
20140;SDS011;10231;47.702;9.826;2022-09-27T16:05:55;1.13;;;0.30;;
20140;SDS011;10231;47.702;9.826;2022-09-27T16:08:25;0.70;;;0.40;;
20140;SDS011;10231;47.702;9.826;2022-09-27T16:10:52;1.33;;;0.70;;
20140;SDS011;10231;47.702;9.826;2022-09-27T16:13:20;0.33;;;0.30;;
20140;SDS011;10231;47.702;9.826;2022-09-27T16:15:46;1.37;;;0.77;;
20140;SDS011;10231;47.702;9.826;2022-09-27T16:18:13;1.57;;;0.80;;
20140;SDS011;10231;47.702;9.826;2022-09-27T16:20:38;1.67;;;0.70;;
20140;SDS011;10231;47.702;9.826;2022-09-27T16:23:04;0.53;;;0.50;;
20140;SDS011;10231;47.702;9.826;2022-09-27T16:25:30;1.43;;;0.70;;
20140;SDS011;10231;47.702;9.826;2022-09-27T16:27:57;2.20;;;0.83;;
20140;SDS011;10231;47.702;9.826;2022-09-27T16:30:23;1.60;;;0.60;;
20140;SDS011;10231;47.702;9.826;2022-09-27T16:32:49;1.80;;;0.50;;
20140;SDS011;10231;47.702;9.826;2022-09-27T16:35:15;0.50;;;0.50;;
20140;SDS011;10231;47.702;9.826;2022-09-27T16:37:42;0.40;;;0.40;;
20140;SDS011;10231;47.702;9.826;2022-09-27T16:40:08;0.50;;;0.50;;
20140;SDS011;10231;47.702;9.826;2022-09-27T16:42:35;0.67;;;0.60;;
20140;SDS011;10231;47.702;9.826;2022-09-27T16:45:02;2.10;;;0.40;;
20140;SDS011;10231;47.702;9.826;2022-09-27T16:47:29;0.60;;;0.40;;
20140;SDS011;10231;47.702;9.826;2022-09-27T16:49:55;1.37;;;0.97;;
20140;SDS011;10231;47.702;9.826;2022-09-27T16:52:39;1.00;;;0.90;;
20140;SDS011;10231;47.702;9.826;2022-09-27T16:55:06;0.43;;;0.40;;
20140;SDS011;10231;47.702;9.826;2022-09-27T16:57:32;0.83;;;0.60;;
20140;SDS011;10231;47.702;9.826;2022-09-27T16:59:58;0.60;;;0.60;;
20140;SDS011;10231;47.702;9.826;2022-09-27T17:02:25;0.67;;;0.47;;
20140;SDS011;10231;47.702;9.826;2022-09-27T17:04:51;0.97;;;0.90;;
20140;SDS011;10231;47.702;9.826;2022-09-27T17:07:17;0.60;;;0.60;;
20140;SDS011;10231;47.702;9.826;2022-09-27T17:09:43;0.87;;;0.40;;
20140;SDS011;10231;47.702;9.826;2022-09-27T17:12:09;1.57;;;0.40;;
20140;SDS011;10231;47.702;9.826;2022-09-27T17:14:35;0.57;;;0.47;;
20140;SDS011;10231;47.702;9.826;2022-09-27T17:17:01;1.33;;;0.70;;
20140;SDS011;10231;47.702;9.826;2022-09-27T17:19:26;0.63;;;0.63;;
20140;SDS011;10231;47.702;9.826;2022-09-27T17:21:52;2.07;;;1.50;;
20140;SDS011;10231;47.702;9.826;2022-09-27T17:24:19;1.37;;;0.90;;
20140;SDS011;10231;47.702;9.826;2022-09-27T17:26:46;0.83;;;0.73;;
20140;SDS011;10231;47.702;9.826;2022-09-27T17:29:11;0.73;;;0.60;;
20140;SDS011;10231;47.702;9.826;2022-09-27T17:31:38;1.70;;;0.70;;
20140;SDS011;10231;47.702;9.826;2022-09-27T17:34:04;1.03;;;0.60;;
20140;SDS011;10231;47.702;9.826;2022-09-27T17:36:31;0.70;;;0.60;;
20140;SDS011;10231;47.702;9.826;2022-09-27T17:38:59;1.40;;;0.90;;